createdAt,value
2022-12-14T00:00:51.237Z,-6.56
2022-12-14T00:02:52.787Z,-6.57
2022-12-14T00:04:54.450Z,-6.57
2022-12-14T00:06:55.887Z,-6.58
2022-12-14T00:09:02.200Z,-6.59
2022-12-14T00:11:03.687Z,-6.61
2022-12-14T00:13:06.844Z,-6.60
2022-12-14T00:15:08.899Z,-6.60
2022-12-14T00:17:10.402Z,-6.61
2022-12-14T00:19:12.234Z,-6.62
2022-12-14T00:21:14.275Z,-6.63
2022-12-14T00:23:15.772Z,-6.64
2022-12-14T00:25:17.339Z,-6.66
2022-12-14T00:27:18.771Z,-6.65
2022-12-14T00:29:20.197Z,-6.67
2022-12-14T00:31:23.192Z,-6.68
2022-12-14T00:33:24.737Z,-6.69
2022-12-14T00:35:26.168Z,-6.72
2022-12-14T00:37:27.615Z,-6.72
2022-12-14T00:39:29.033Z,-6.73
2022-12-14T00:41:30.471Z,-6.75
2022-12-14T00:43:31.985Z,-6.76
2022-12-14T00:45:33.428Z,-6.76
2022-12-14T00:47:40.376Z,-6.78
2022-12-14T00:49:42.216Z,-6.79
2022-12-14T00:51:43.657Z,-6.79
2022-12-14T00:53:45.097Z,-6.79
2022-12-14T00:55:49.553Z,-6.80
2022-12-14T00:57:51.178Z,-6.82
2022-12-14T00:59:52.601Z,-6.83
2022-12-14T01:01:54.176Z,-6.85
2022-12-14T01:04:15.886Z,-6.86
2022-12-14T01:06:20.151Z,-6.87
2022-12-14T01:08:21.821Z,-6.88
2022-12-14T01:10:23.440Z,-6.88
2022-12-14T01:12:24.998Z,-6.90
2022-12-14T01:14:26.434Z,-6.90
2022-12-14T01:16:28.169Z,-6.92
2022-12-14T01:18:29.643Z,-6.91
2022-12-14T01:20:31.149Z,-6.92
2022-12-14T01:22:32.587Z,-6.92
2022-12-14T01:24:34.005Z,-6.93
2022-12-14T01:26:40.212Z,-6.94
2022-12-14T01:28:42.284Z,-6.95
2022-12-14T01:30:43.747Z,-6.97
2022-12-14T01:32:46.098Z,-6.97
2022-12-14T01:34:51.176Z,-6.97
2022-12-14T01:36:52.617Z,-6.98
2022-12-14T01:38:56.613Z,-7.00
2022-12-14T01:40:58.773Z,-6.99
2022-12-14T01:43:00.258Z,-7.00
2022-12-14T01:45:01.947Z,-7.01
2022-12-14T01:47:24.463Z,-7.02
2022-12-14T01:49:32.082Z,-7.02
2022-12-14T01:51:36.340Z,-7.02
2022-12-14T01:53:37.892Z,-7.03
2022-12-14T01:55:42.958Z,-7.04
2022-12-14T01:58:07.050Z,-7.05
2022-12-14T02:00:10.802Z,-7.08
2022-12-14T02:02:14.794Z,-7.08
2022-12-14T02:04:19.058Z,-7.11
2022-12-14T02:06:33.852Z,-7.10
2022-12-14T02:08:36.210Z,-7.11
2022-12-14T02:10:38.017Z,-7.12
2022-12-14T02:12:44.182Z,-7.13
2022-12-14T02:14:47.090Z,-7.15
2022-12-14T02:16:55.097Z,-7.16
2022-12-14T02:18:56.576Z,-7.20
2022-12-14T02:21:36.768Z,-7.21
2022-12-14T02:23:50.063Z,-7.22
2022-12-14T02:26:34.074Z,-7.23
2022-12-14T02:29:12.782Z,-7.25
2022-12-14T02:31:33.300Z,-7.26
2022-12-14T02:33:52.682Z,-7.30
2022-12-14T02:36:15.887Z,-7.32
2022-12-14T02:38:42.702Z,-7.33
2022-12-14T02:41:07.306Z,-7.34
2022-12-14T02:43:27.790Z,-7.35
2022-12-14T02:45:53.029Z,-7.35
2022-12-14T02:48:06.986Z,-7.35
2022-12-14T02:50:24.037Z,-7.36
2022-12-14T02:52:28.561Z,-7.38
2022-12-14T02:54:44.289Z,-7.39
2022-12-14T02:56:57.779Z,-7.40
2022-12-14T02:59:02.105Z,-7.42
2022-12-14T03:01:04.298Z,-7.44
2022-12-14T03:03:06.728Z,-7.45
2022-12-14T03:05:09.130Z,-7.46
2022-12-14T03:07:48.872Z,-7.47
2022-12-14T03:09:52.173Z,-7.48
2022-12-14T03:12:00.871Z,-7.48
2022-12-14T03:14:12.705Z,-7.52
2022-12-14T03:16:19.780Z,-7.52
2022-12-14T03:18:24.880Z,-7.55
2022-12-14T03:20:30.983Z,-7.56
2022-12-14T03:22:43.588Z,-7.58
2022-12-14T03:24:52.494Z,-7.60
2022-12-14T03:27:05.080Z,-7.62
2022-12-14T03:29:15.491Z,-7.63
2022-12-14T03:31:35.838Z,-7.63
2022-12-14T03:33:39.879Z,-7.62
2022-12-14T03:36:06.565Z,-7.62
2022-12-14T03:38:16.996Z,-7.63
2022-12-14T03:40:19.552Z,-7.61
2022-12-14T03:42:30.944Z,-7.64
2022-12-14T03:44:50.007Z,-7.64
2022-12-14T03:47:11.746Z,-7.66
2022-12-14T03:49:41.091Z,-7.68
2022-12-14T03:51:50.009Z,-7.68
2022-12-14T03:54:11.210Z,-7.69
2022-12-14T03:56:30.587Z,-7.71
2022-12-14T03:58:50.013Z,-7.71
2022-12-14T04:01:00.730Z,-7.73
2022-12-14T04:03:10.086Z,-7.74
2022-12-14T04:05:38.067Z,-7.74
2022-12-14T04:07:49.057Z,-7.76
2022-12-14T04:09:54.165Z,-7.76
2022-12-14T04:12:28.244Z,-7.76
2022-12-14T04:14:55.733Z,-7.77
2022-12-14T04:17:18.980Z,-7.80
2022-12-14T04:19:27.131Z,-7.81
2022-12-14T04:21:36.618Z,-7.81
2022-12-14T04:24:05.407Z,-7.80
2022-12-14T04:26:13.001Z,-7.80
2022-12-14T04:28:54.111Z,-7.81
2022-12-14T04:30:59.758Z,-7.82
2022-12-14T04:33:27.304Z,-7.82
2022-12-14T04:35:39.762Z,-7.83
2022-12-14T04:37:45.064Z,-7.82
2022-12-14T04:40:08.538Z,-7.83
2022-12-14T04:42:13.973Z,-7.84
2022-12-14T04:44:30.627Z,-7.84
2022-12-14T04:46:40.374Z,-7.85
2022-12-14T04:48:48.735Z,-7.86
2022-12-14T04:51:00.229Z,-7.86
2022-12-14T04:53:10.964Z,-7.86
2022-12-14T04:55:34.366Z,-7.87
2022-12-14T04:57:49.640Z,-7.89
2022-12-14T04:59:51.644Z,-7.88
2022-12-14T05:02:17.130Z,-7.89
2022-12-14T05:04:40.118Z,-7.89
2022-12-14T05:06:50.699Z,-7.89
2022-12-14T05:09:09.698Z,-7.89
2022-12-14T05:11:53.137Z,-7.90
2022-12-14T05:13:49.560Z,-7.91
2022-12-14T05:15:56.341Z,-7.92
2022-12-14T05:18:03.051Z,-7.94
2022-12-14T05:20:05.677Z,-7.94
2022-12-14T05:22:08.222Z,-7.95
2022-12-14T05:24:09.711Z,-7.96
2022-12-14T05:26:11.154Z,-7.96
2022-12-14T05:28:12.987Z,-7.95
2022-12-14T05:30:14.778Z,-7.95
2022-12-14T05:32:16.306Z,-7.96
2022-12-14T05:34:18.125Z,-7.97
2022-12-14T05:36:19.879Z,-7.98
2022-12-14T05:38:21.356Z,-8.00
2022-12-14T05:40:22.783Z,-8.01
2022-12-14T05:42:24.318Z,-8.02
2022-12-14T05:44:25.741Z,-8.02
2022-12-14T05:46:27.302Z,-8.04
2022-12-14T05:48:29.897Z,-8.06
2022-12-14T05:50:31.723Z,-8.07
2022-12-14T05:52:33.155Z,-8.07
2022-12-14T05:54:34.577Z,-8.09
2022-12-14T05:56:36.110Z,-8.11
2022-12-14T05:58:38.433Z,-8.15
2022-12-14T06:00:40.105Z,-8.16
2022-12-14T06:02:41.597Z,-8.15
2022-12-14T06:04:43.153Z,-8.17
2022-12-14T06:06:44.731Z,-8.18
2022-12-14T06:08:46.749Z,-8.19
2022-12-14T06:10:48.266Z,-8.19
2022-12-14T06:12:50.037Z,-8.20
2022-12-14T06:14:51.520Z,-8.20
2022-12-14T06:16:53.056Z,-8.21
2022-12-14T06:18:59.811Z,-8.20
2022-12-14T06:21:01.340Z,-8.21
2022-12-14T06:23:03.001Z,-8.21
2022-12-14T06:25:04.689Z,-8.23
2022-12-14T06:27:06.500Z,-8.23
2022-12-14T06:29:14.054Z,-8.23
2022-12-14T06:31:18.853Z,-8.23
2022-12-14T06:33:20.446Z,-8.24
2022-12-14T06:35:21.871Z,-8.23
2022-12-14T06:37:23.323Z,-8.24
2022-12-14T06:39:24.795Z,-8.24
2022-12-14T06:41:26.233Z,-8.25
2022-12-14T06:43:28.100Z,-8.26
2022-12-14T06:45:30.205Z,-8.27
2022-12-14T06:47:31.623Z,-8.29
2022-12-14T06:49:33.135Z,-8.29
2022-12-14T06:51:40.759Z,-8.29
2022-12-14T06:53:42.182Z,-8.32
2022-12-14T06:55:43.716Z,-8.34
2022-12-14T06:57:51.613Z,-8.33
2022-12-14T06:59:53.051Z,-8.33
2022-12-14T07:01:54.562Z,-8.34
2022-12-14T07:03:57.964Z,-8.33
2022-12-14T07:06:01.393Z,-8.31
2022-12-14T07:08:04.046Z,-8.30
2022-12-14T07:10:06.998Z,-8.30
2022-12-14T07:12:08.434Z,-8.30
2022-12-14T07:14:16.251Z,-8.29
2022-12-14T07:16:21.164Z,-8.28
2022-12-14T07:18:23.178Z,-8.28
2022-12-14T07:20:24.627Z,-8.27
2022-12-14T07:22:26.093Z,-8.27
2022-12-14T07:24:27.538Z,-8.25
2022-12-14T07:26:30.070Z,-8.24
2022-12-14T07:28:32.354Z,-8.24
2022-12-14T07:30:33.806Z,-8.23
2022-12-14T07:32:35.252Z,-8.23
2022-12-14T07:34:36.710Z,-8.22
2022-12-14T07:36:38.205Z,-8.22
2022-12-14T07:38:41.363Z,-8.23
2022-12-14T07:40:43.422Z,-8.22
2022-12-14T07:42:49.349Z,-8.20
2022-12-14T07:44:50.847Z,-8.20
2022-12-14T07:46:53.382Z,-8.19
2022-12-14T07:48:56.494Z,-8.17
2022-12-14T07:51:07.235Z,-8.18
2022-12-14T07:53:08.650Z,-8.16
2022-12-14T07:55:10.097Z,-8.15
2022-12-14T07:57:11.532Z,-8.14
2022-12-14T07:59:16.072Z,-8.13
2022-12-14T08:01:20.604Z,-8.12
2022-12-14T08:03:22.122Z,-8.11
2022-12-14T08:05:23.567Z,-8.10
2022-12-14T08:07:25.131Z,-8.08
2022-12-14T08:09:26.690Z,-8.07
2022-12-14T08:11:28.903Z,-8.05
2022-12-14T08:13:31.222Z,-8.05
2022-12-14T08:15:37.456Z,-8.06
2022-12-14T08:17:38.892Z,-8.05
2022-12-14T08:19:40.323Z,-8.03
2022-12-14T08:21:42.120Z,-8.00
2022-12-14T08:23:43.550Z,-7.96
2022-12-14T08:25:45.008Z,-7.93
2022-12-14T08:27:46.487Z,-7.92
2022-12-14T08:29:48.023Z,-7.88
2022-12-14T08:31:49.542Z,-7.85
2022-12-14T08:33:51.834Z,-7.80
2022-12-14T08:35:53.281Z,-7.77
2022-12-14T08:37:54.750Z,-7.74
2022-12-14T08:39:56.183Z,-7.68
2022-12-14T08:41:57.652Z,-7.67
2022-12-14T08:44:01.292Z,-7.63
2022-12-14T08:46:03.721Z,-7.58
2022-12-14T08:48:05.333Z,-7.53
2022-12-14T08:50:07.087Z,-7.51
2022-12-14T08:52:10.551Z,-7.46
2022-12-14T08:54:12.059Z,-7.43
2022-12-14T08:56:15.815Z,-7.40
2022-12-14T08:58:17.289Z,-7.36
2022-12-14T09:00:18.944Z,-7.33
2022-12-14T09:02:20.646Z,-7.27
2022-12-14T09:04:22.440Z,-7.24
2022-12-14T09:06:27.748Z,-7.19
2022-12-14T09:08:29.177Z,-7.16
2022-12-14T09:10:30.794Z,-7.11
2022-12-14T09:12:32.337Z,-7.06
2022-12-14T09:14:34.455Z,-7.04
2022-12-14T09:16:37.602Z,-7.01
2022-12-14T09:18:39.463Z,-6.97
2022-12-14T09:20:43.282Z,-6.92
2022-12-14T09:22:45.850Z,-6.87
2022-12-14T09:24:48.011Z,-6.85
2022-12-14T09:26:50.515Z,-6.81
2022-12-14T09:28:55.856Z,-6.76
2022-12-14T09:31:00.081Z,-6.74
2022-12-14T09:33:01.510Z,-6.72
2022-12-14T09:35:02.982Z,-6.68
2022-12-14T09:37:07.368Z,-6.65
2022-12-14T09:39:08.894Z,-6.60
2022-12-14T09:41:34.577Z,-6.57
2022-12-14T09:43:39.015Z,-6.55
2022-12-14T09:45:51.098Z,-6.50
2022-12-14T09:48:06.586Z,-6.46
2022-12-14T09:50:20.410Z,-6.42
2022-12-14T09:52:40.669Z,-6.39
2022-12-14T09:54:44.393Z,-6.35
2022-12-14T09:56:46.065Z,-6.31
2022-12-14T09:58:54.557Z,-6.26
2022-12-14T10:01:22.497Z,-6.22
2022-12-14T10:03:36.933Z,-6.17
2022-12-14T10:05:50.506Z,-6.13
2022-12-14T10:08:23.964Z,-6.07
2022-12-14T10:10:31.637Z,-6.02
2022-12-14T10:12:59.112Z,-5.97
2022-12-14T10:15:25.032Z,-5.93
2022-12-14T10:17:48.243Z,-5.90
2022-12-14T10:19:55.533Z,-5.86
2022-12-14T10:22:17.938Z,-5.86
2022-12-14T10:24:27.389Z,-5.77
2022-12-14T10:26:45.752Z,-5.72
2022-12-14T10:29:01.708Z,-5.65
2022-12-14T10:31:07.997Z,-5.60
2022-12-14T10:33:31.636Z,-5.52
2022-12-14T10:35:51.803Z,-5.44
2022-12-14T10:38:11.364Z,-5.36
2022-12-14T10:40:29.196Z,-5.27
2022-12-14T10:43:04.010Z,-5.18
2022-12-14T10:47:39.729Z,-4.95
2022-12-14T10:49:57.368Z,-4.83
2022-12-14T10:52:16.902Z,-4.70
2022-12-14T10:54:21.065Z,-4.52
2022-12-14T10:56:35.187Z,-4.20
2022-12-14T10:58:36.689Z,-3.44
2022-12-14T11:00:38.486Z,-2.28
2022-12-14T11:02:43.367Z,-1.08
2022-12-14T11:04:58.424Z,0.12
2022-12-14T11:07:03.125Z,1.23
2022-12-14T11:09:20.519Z,2.18
2022-12-14T11:11:24.797Z,2.98
2022-12-14T11:13:26.339Z,3.62
2022-12-14T11:15:42.359Z,4.28
2022-12-14T11:17:44.333Z,4.84
2022-12-14T11:20:05.096Z,5.36
2022-12-14T11:22:20.266Z,5.80
2022-12-14T11:24:28.559Z,6.24
2022-12-14T11:26:42.360Z,6.59
2022-12-14T11:28:50.394Z,6.74
2022-12-14T11:30:59.621Z,6.61
2022-12-14T11:33:01.259Z,6.15
2022-12-14T11:35:02.816Z,5.50
2022-12-14T11:37:22.931Z,4.39
2022-12-14T11:39:25.193Z,3.41
2022-12-14T11:41:37.958Z,2.68
2022-12-14T11:43:39.625Z,2.06
2022-12-14T11:45:41.099Z,1.09
2022-12-14T11:47:42.589Z,0.48
2022-12-14T11:49:48.908Z,0.17
2022-12-14T11:52:05.412Z,0.00
2022-12-14T11:54:07.831Z,-0.14
2022-12-14T11:56:17.334Z,-0.20
2022-12-14T11:58:22.900Z,-0.11
2022-12-14T12:00:41.319Z,0.03
2022-12-14T12:02:57.887Z,0.02
2022-12-14T12:05:14.530Z,0.12
2022-12-14T12:07:26.107Z,0.38
2022-12-14T12:09:31.024Z,0.46
2022-12-14T12:11:34.948Z,0.39
2022-12-14T12:13:41.935Z,0.27
2022-12-14T12:15:52.265Z,0.11
2022-12-14T12:17:59.261Z,-0.10
2022-12-14T12:20:00.794Z,-0.30
2022-12-14T12:22:04.230Z,-0.45
2022-12-14T12:24:27.068Z,-0.64
2022-12-14T12:26:35.392Z,-0.81
2022-12-14T12:28:43.135Z,-0.96
2022-12-14T12:30:49.757Z,-1.06
2022-12-14T12:32:53.593Z,-1.21
2022-12-14T12:35:12.396Z,-1.41
2022-12-14T12:37:26.424Z,-1.49
2022-12-14T12:39:30.733Z,-1.50
2022-12-14T12:41:47.477Z,-1.44
2022-12-14T12:44:06.481Z,-1.48
2022-12-14T12:46:28.267Z,-1.54
2022-12-14T12:48:39.936Z,-1.52
2022-12-14T12:50:51.266Z,-1.48
2022-12-14T12:53:00.967Z,-1.51
2022-12-14T12:55:17.650Z,-1.54
2022-12-14T12:57:20.437Z,-1.60
2022-12-14T12:59:31.095Z,-1.69
2022-12-14T13:01:45.161Z,-1.78
2022-12-14T13:04:00.467Z,-1.83
2022-12-14T13:06:21.950Z,-1.92
2022-12-14T13:08:30.617Z,-1.95
2022-12-14T13:10:34.271Z,-1.94
2022-12-14T13:12:44.225Z,-1.93
2022-12-14T13:14:52.759Z,-1.92
2022-12-14T13:16:55.579Z,-1.96
2022-12-14T13:19:48.847Z,-2.00
2022-12-14T13:21:49.660Z,-2.06
2022-12-14T13:23:51.664Z,-2.08
2022-12-14T13:26:18.993Z,-2.09
2022-12-14T13:28:51.172Z,-2.12
2022-12-14T13:31:03.549Z,-2.15
2022-12-14T13:33:43.013Z,-2.14
2022-12-14T13:35:53.224Z,-2.15
2022-12-14T13:38:13.065Z,-2.16
2022-12-14T13:40:31.489Z,-2.17
2022-12-14T13:43:23.807Z,-2.16
2022-12-14T13:45:39.784Z,-2.17
2022-12-14T13:47:48.475Z,-2.18
2022-12-14T13:50:26.412Z,-2.23
2022-12-14T13:52:41.920Z,-2.26
2022-12-14T13:54:47.174Z,-2.29
2022-12-14T13:56:49.157Z,-2.34
2022-12-14T13:58:52.016Z,-2.39
2022-12-14T14:01:11.855Z,-2.43
2022-12-14T14:03:35.269Z,-2.47
2022-12-14T14:05:43.329Z,-2.51
2022-12-14T14:08:02.333Z,-2.56
2022-12-14T14:10:34.200Z,-2.59
2022-12-14T14:12:41.745Z,-2.61
2022-12-14T14:14:55.890Z,-2.65
2022-12-14T14:17:01.909Z,-2.67
2022-12-14T14:19:09.299Z,-2.71
2022-12-14T14:21:13.828Z,-2.75
2022-12-14T14:23:18.210Z,-2.79
2022-12-14T14:25:38.679Z,-2.85
2022-12-14T14:27:50.230Z,-2.90
2022-12-14T14:29:52.618Z,-2.96
2022-12-14T14:31:57.959Z,-2.99
2022-12-14T14:34:00.413Z,-3.03
2022-12-14T14:38:55.972Z,-3.14
2022-12-14T14:41:18.014Z,-3.18
2022-12-14T14:43:27.579Z,-3.24
2022-12-14T14:45:39.700Z,-3.28
2022-12-14T14:47:42.308Z,-3.32
2022-12-14T14:49:44.362Z,-3.37
2022-12-14T14:51:45.809Z,-3.42
2022-12-14T14:53:50.270Z,-3.48
2022-12-14T14:56:30.178Z,-3.54
2022-12-14T14:58:34.172Z,-3.59
2022-12-14T15:00:50.598Z,-3.65
2022-12-14T15:02:54.467Z,-3.69
2022-12-14T15:05:05.468Z,-3.74
2022-12-14T15:07:37.176Z,-3.77
2022-12-14T15:09:46.570Z,-3.84
2022-12-14T15:11:53.691Z,-3.89
2022-12-14T15:14:33.152Z,-3.93
2022-12-14T15:16:44.984Z,-4.00
2022-12-14T15:18:46.483Z,-4.07
2022-12-14T15:21:03.149Z,-4.13
2022-12-14T15:23:06.133Z,-4.23
2022-12-14T15:25:14.153Z,-4.27
2022-12-14T15:27:34.775Z,-4.31
2022-12-14T15:29:36.389Z,-4.33
2022-12-14T15:31:42.489Z,-4.36
2022-12-14T15:33:47.788Z,-4.39
2022-12-14T15:35:49.638Z,-4.47
2022-12-14T15:37:59.973Z,-4.51
2022-12-14T15:40:07.818Z,-4.56
2022-12-14T15:42:12.823Z,-4.61
2022-12-14T15:44:22.009Z,-4.63
2022-12-14T15:46:27.853Z,-4.67
2022-12-14T15:48:32.870Z,-4.75
2022-12-14T15:50:35.162Z,-4.78
2022-12-14T15:52:36.663Z,-4.81
2022-12-14T15:54:38.308Z,-4.84
2022-12-14T15:56:41.959Z,-4.87
2022-12-14T15:58:44.248Z,-4.92
2022-12-14T16:00:49.392Z,-4.94
2022-12-14T16:02:51.350Z,-4.98
2022-12-14T16:04:55.083Z,-5.02
2022-12-14T16:07:08.117Z,-5.06
2022-12-14T16:09:26.069Z,-5.14
2022-12-14T16:11:44.458Z,-5.17
2022-12-14T16:13:46.988Z,-5.21
2022-12-14T16:15:49.383Z,-5.25
2022-12-14T16:18:00.709Z,-5.31
2022-12-14T16:20:23.684Z,-5.34
2022-12-14T16:22:30.316Z,-5.37
2022-12-14T16:24:31.864Z,-5.39
2022-12-14T16:26:37.545Z,-5.39
2022-12-14T16:28:39.030Z,-5.46
2022-12-14T16:31:02.676Z,-5.46
2022-12-14T16:33:17.605Z,-5.49
2022-12-14T16:35:28.031Z,-5.51
2022-12-14T16:37:33.017Z,-5.52
2022-12-14T16:39:44.220Z,-5.54
2022-12-14T16:41:57.078Z,-5.55
2022-12-14T16:44:01.817Z,-5.58
2022-12-14T16:46:03.277Z,-5.60
2022-12-14T16:48:18.228Z,-5.62
2022-12-14T16:50:40.099Z,-5.69
2022-12-14T16:52:43.518Z,-5.75
2022-12-14T16:55:15.411Z,-5.77
2022-12-14T16:57:20.949Z,-5.81
2022-12-14T16:59:25.569Z,-5.84
2022-12-14T17:01:27.732Z,-5.86
2022-12-14T17:03:30.548Z,-5.87
2022-12-14T17:05:35.588Z,-5.89
2022-12-14T17:07:37.412Z,-5.92
2022-12-14T17:09:39.992Z,-5.95
2022-12-14T17:11:41.470Z,-5.98
2022-12-14T17:13:42.892Z,-6.01
2022-12-14T17:15:58.482Z,-6.08
2022-12-14T17:18:03.830Z,-6.12
2022-12-14T17:20:09.308Z,-6.12
2022-12-14T17:22:18.264Z,-6.12
2022-12-14T17:24:22.237Z,-6.17
2022-12-14T17:26:25.574Z,-6.18
2022-12-14T17:28:30.052Z,-6.20
2022-12-14T17:30:31.740Z,-6.24
2022-12-14T17:32:34.087Z,-6.27
2022-12-14T17:34:35.553Z,-6.30
2022-12-14T17:36:37.057Z,-6.31
2022-12-14T17:38:38.538Z,-6.35
2022-12-14T17:40:40.259Z,-6.40
2022-12-14T17:42:45.905Z,-6.42
2022-12-14T17:44:59.398Z,-6.48
2022-12-14T17:47:00.837Z,-6.56
2022-12-14T17:49:06.455Z,-6.63
2022-12-14T17:51:16.455Z,-6.68
2022-12-14T17:53:23.328Z,-6.71
2022-12-14T17:55:27.318Z,-6.67
2022-12-14T17:57:28.816Z,-6.65
2022-12-14T17:59:30.438Z,-6.64
2022-12-14T18:01:32.120Z,-6.64
2022-12-14T18:03:36.792Z,-6.63
2022-12-14T18:05:44.968Z,-6.65
2022-12-14T18:07:50.330Z,-6.64
2022-12-14T18:09:53.598Z,-6.64
2022-12-14T18:12:22.010Z,-6.67
2022-12-14T18:14:16.943Z,-6.71
2022-12-14T18:16:20.360Z,-6.73
2022-12-14T18:18:24.084Z,-6.73
2022-12-14T18:20:26.192Z,-6.73
2022-12-14T18:22:27.636Z,-6.73
2022-12-14T18:24:29.090Z,-6.74
2022-12-14T18:26:30.549Z,-6.75
2022-12-14T18:28:32.210Z,-6.75
2022-12-14T18:30:41.733Z,-6.75
2022-12-14T18:32:44.620Z,-6.78
2022-12-14T18:34:46.080Z,-6.81
2022-12-14T18:36:47.614Z,-6.85
2022-12-14T18:38:50.168Z,-6.88
2022-12-14T18:40:53.300Z,-6.90
2022-12-14T18:42:55.337Z,-6.92
2022-12-14T18:44:56.771Z,-6.94
2022-12-14T18:47:14.711Z,-6.97
2022-12-14T18:49:19.642Z,-7.00
2022-12-14T18:51:23.862Z,-7.02
2022-12-14T18:53:26.414Z,-7.03
2022-12-14T18:55:31.576Z,-7.05
2022-12-14T18:57:33.076Z,-7.06
2022-12-14T18:59:39.100Z,-7.05
2022-12-14T19:01:43.754Z,-7.06
2022-12-14T19:03:45.593Z,-7.07
2022-12-14T19:05:47.647Z,-7.10
2022-12-14T19:07:50.098Z,-7.14
2022-12-14T19:09:51.628Z,-7.17
2022-12-14T19:11:53.082Z,-7.19
2022-12-14T19:13:55.206Z,-7.22
2022-12-14T19:15:56.976Z,-7.26
2022-12-14T19:17:59.092Z,-7.25
2022-12-14T19:20:00.552Z,-7.30
2022-12-14T19:22:02.006Z,-7.32
2022-12-14T19:24:04.113Z,-7.33
2022-12-14T19:26:05.877Z,-7.33
2022-12-14T19:30:28.943Z,-7.36
2022-12-14T19:32:30.450Z,-7.38
2022-12-14T19:34:32.063Z,-7.42
2022-12-14T19:36:33.560Z,-7.45
2022-12-14T19:38:36.091Z,-7.47
2022-12-14T19:40:37.612Z,-7.50
2022-12-14T19:42:39.637Z,-7.52
2022-12-14T19:44:41.084Z,-7.54
2022-12-14T19:46:42.628Z,-7.57
2022-12-14T19:48:44.671Z,-7.57
2022-12-14T19:50:49.323Z,-7.56
2022-12-14T19:52:52.483Z,-7.57
2022-12-14T19:54:54.357Z,-7.58
2022-12-14T19:56:56.019Z,-7.63
2022-12-14T19:59:00.828Z,-7.62
2022-12-14T20:01:07.499Z,-7.66
2022-12-14T20:03:09.041Z,-7.69
2022-12-14T20:05:10.770Z,-7.68
2022-12-14T20:07:14.260Z,-7.70
2022-12-14T20:09:17.275Z,-7.72
2022-12-14T20:11:20.372Z,-7.74
2022-12-14T20:13:23.288Z,-7.77
2022-12-14T20:15:24.849Z,-7.78
2022-12-14T20:17:26.587Z,-7.81
2022-12-14T20:19:28.161Z,-7.84
2022-12-14T20:21:30.065Z,-7.86
2022-12-14T20:23:32.913Z,-7.85
2022-12-14T20:25:34.934Z,-7.86
2022-12-14T20:27:40.614Z,-7.86
2022-12-14T20:29:42.803Z,-7.88
2022-12-14T20:31:44.373Z,-7.92
2022-12-14T20:33:45.975Z,-7.96
2022-12-14T20:35:51.432Z,-7.97
2022-12-14T20:37:53.744Z,-7.98
2022-12-14T20:39:55.175Z,-8.00
2022-12-14T20:41:56.856Z,-8.00
2022-12-14T20:43:59.187Z,-8.01
2022-12-14T20:46:00.677Z,-8.02
2022-12-14T20:48:02.141Z,-8.05
2022-12-14T20:50:04.034Z,-8.08
2022-12-14T20:52:05.603Z,-8.12
2022-12-14T20:54:10.711Z,-8.10
2022-12-14T20:56:12.198Z,-8.12
2022-12-14T20:58:13.638Z,-8.13
2022-12-14T21:00:15.486Z,-8.13
2022-12-14T21:02:18.672Z,-8.14
2022-12-14T21:04:20.192Z,-8.16
2022-12-14T21:06:23.382Z,-8.16
2022-12-14T21:08:24.951Z,-8.16
2022-12-14T21:10:26.512Z,-8.16
2022-12-14T21:12:28.028Z,-8.19
2022-12-14T21:14:32.811Z,-8.24
2022-12-14T21:16:36.079Z,-8.26
2022-12-14T21:18:37.603Z,-8.24
2022-12-14T21:20:39.066Z,-8.23
2022-12-14T21:22:40.538Z,-8.23
2022-12-14T21:27:04.621Z,-8.16
2022-12-14T21:29:07.905Z,-8.15
2022-12-14T21:31:16.229Z,-8.13
2022-12-14T21:33:17.780Z,-8.11
2022-12-14T21:35:19.239Z,-8.07
2022-12-14T21:37:20.911Z,-8.06
2022-12-14T21:39:22.518Z,-8.06
2022-12-14T21:41:42.466Z,-8.04
2022-12-14T21:43:43.899Z,-8.03
2022-12-14T21:45:46.189Z,-8.03
2022-12-14T21:47:47.814Z,-8.01
2022-12-14T21:49:49.395Z,-8.01
2022-12-14T21:51:54.254Z,-8.02
2022-12-14T21:53:59.262Z,-8.04
2022-12-14T21:56:19.275Z,-8.03
2022-12-14T21:58:20.886Z,-8.06
2022-12-14T22:00:22.447Z,-8.07
2022-12-14T22:02:25.655Z,-8.08
2022-12-14T22:04:29.201Z,-8.08
2022-12-14T22:06:32.634Z,-8.03
2022-12-14T22:08:34.172Z,-7.98
2022-12-14T22:10:35.629Z,-7.93
2022-12-14T22:12:37.067Z,-7.91
2022-12-14T22:14:38.943Z,-7.93
2022-12-14T22:16:41.459Z,-7.93
2022-12-14T22:18:42.928Z,-7.93
2022-12-14T22:20:44.409Z,-7.92
2022-12-14T22:22:45.911Z,-7.91
2022-12-14T22:24:51.181Z,-7.87
2022-12-14T22:26:52.889Z,-7.83
2022-12-14T22:28:54.452Z,-7.81
2022-12-14T22:30:55.967Z,-7.79
2022-12-14T22:32:58.160Z,-7.78
2022-12-14T22:34:59.767Z,-7.76
2022-12-14T22:37:01.688Z,-7.75
2022-12-14T22:39:03.286Z,-7.72
2022-12-14T22:41:05.922Z,-7.72
2022-12-14T22:43:07.357Z,-7.70
2022-12-14T22:45:09.423Z,-7.70
2022-12-14T22:47:10.947Z,-7.70
2022-12-14T22:49:17.640Z,-7.68
2022-12-14T22:51:20.252Z,-7.68
2022-12-14T22:53:21.689Z,-7.68
2022-12-14T22:55:24.296Z,-7.65
2022-12-14T22:57:25.927Z,-7.64
2022-12-14T22:59:58.175Z,-7.60
2022-12-14T23:01:59.982Z,-7.61
2022-12-14T23:04:02.165Z,-7.60
2022-12-14T23:06:03.946Z,-7.60
2022-12-14T23:08:05.821Z,-7.57
2022-12-14T23:10:26.226Z,-7.54
2022-12-14T23:12:46.112Z,-7.51
2022-12-14T23:15:05.893Z,-7.43
2022-12-14T23:17:26.324Z,-7.33
2022-12-14T23:19:46.228Z,-7.18
2022-12-14T23:22:06.534Z,-7.09
2022-12-14T23:24:26.908Z,-7.01
2022-12-14T23:26:47.353Z,-6.91
2022-12-14T23:29:07.212Z,-6.83
2022-12-14T23:31:27.208Z,-6.76
2022-12-14T23:33:47.401Z,-6.73
2022-12-14T23:36:07.608Z,-6.72
2022-12-14T23:38:28.123Z,-6.72
2022-12-14T23:40:48.011Z,-6.69
2022-12-14T23:43:07.898Z,-6.66
2022-12-14T23:45:28.264Z,-6.63
2022-12-14T23:47:49.372Z,-6.60
2022-12-14T23:50:09.791Z,-6.60
2022-12-14T23:52:29.573Z,-6.61
2022-12-14T23:54:49.978Z,-6.60
2022-12-14T23:57:10.260Z,-6.58
2022-12-14T23:59:32.556Z,-6.55
